sensor_id;sensor_type;location;lat;lon;timestamp;temperature;humidity
5118;DHT22;2578;51.622;7.046;2024-01-07T00:01:58;2.70;99.90
5118;DHT22;2578;51.622;7.046;2024-01-07T00:04:24;1.80;99.90
5118;DHT22;2578;51.622;7.046;2024-01-07T00:06:49;1.80;99.90
5118;DHT22;2578;51.622;7.046;2024-01-07T00:09:16;1.80;99.90
5118;DHT22;2578;51.622;7.046;2024-01-07T00:11:42;1.80;99.90
5118;DHT22;2578;51.622;7.046;2024-01-07T00:14:07;1.80;99.90
5118;DHT22;2578;51.622;7.046;2024-01-07T00:16:33;1.80;99.90
5118;DHT22;2578;51.622;7.046;2024-01-07T00:18:59;1.80;99.90
5118;DHT22;2578;51.622;7.046;2024-01-07T00:21:25;1.80;99.90
5118;DHT22;2578;51.622;7.046;2024-01-07T00:23:50;1.80;99.90
5118;DHT22;2578;51.622;7.046;2024-01-07T00:26:16;1.80;99.90
5118;DHT22;2578;51.622;7.046;2024-01-07T00:28:42;1.80;99.90
5118;DHT22;2578;51.622;7.046;2024-01-07T00:31:07;1.80;99.90
5118;DHT22;2578;51.622;7.046;2024-01-07T00:33:34;1.80;99.90
5118;DHT22;2578;51.622;7.046;2024-01-07T00:36:01;1.80;99.90
5118;DHT22;2578;51.622;7.046;2024-01-07T00:38:26;1.80;99.90
5118;DHT22;2578;51.622;7.046;2024-01-07T00:40:52;1.80;99.90
5118;DHT22;2578;51.622;7.046;2024-01-07T00:43:18;1.80;99.90
5118;DHT22;2578;51.622;7.046;2024-01-07T00:45:44;1.80;99.90
5118;DHT22;2578;51.622;7.046;2024-01-07T00:48:09;1.80;99.90
5118;DHT22;2578;51.622;7.046;2024-01-07T00:50:35;1.80;99.90
5118;DHT22;2578;51.622;7.046;2024-01-07T00:53:01;1.80;99.90
5118;DHT22;2578;51.622;7.046;2024-01-07T00:55:26;1.70;99.90
5118;DHT22;2578;51.622;7.046;2024-01-07T00:57:52;1.70;99.90
5118;DHT22;2578;51.622;7.046;2024-01-07T01:00:18;1.70;99.90
5118;DHT22;2578;51.622;7.046;2024-01-07T01:02:44;1.70;99.90
5118;DHT22;2578;51.622;7.046;2024-01-07T01:05:09;1.70;99.90
5118;DHT22;2578;51.622;7.046;2024-01-07T01:07:35;1.70;99.90
5118;DHT22;2578;51.622;7.046;2024-01-07T01:10:00;1.80;99.90
5118;DHT22;2578;51.622;7.046;2024-01-07T01:12:26;1.70;99.90
5118;DHT22;2578;51.622;7.046;2024-01-07T01:14:51;1.60;99.90
5118;DHT22;2578;51.622;7.046;2024-01-07T01:17:17;1.80;99.90
5118;DHT22;2578;51.622;7.046;2024-01-07T01:19:42;1.80;99.90
5118;DHT22;2578;51.622;7.046;2024-01-07T01:22:08;1.70;99.90
5118;DHT22;2578;51.622;7.046;2024-01-07T01:24:34;1.70;99.90
5118;DHT22;2578;51.622;7.046;2024-01-07T01:27:00;1.70;99.90
5118;DHT22;2578;51.622;7.046;2024-01-07T01:29:25;1.70;99.90
5118;DHT22;2578;51.622;7.046;2024-01-07T01:31:51;1.70;99.90
5118;DHT22;2578;51.622;7.046;2024-01-07T01:34:17;1.70;99.90
5118;DHT22;2578;51.622;7.046;2024-01-07T01:36:42;1.80;99.90
5118;DHT22;2578;51.622;7.046;2024-01-07T01:39:08;1.70;99.90
5118;DHT22;2578;51.622;7.046;2024-01-07T01:41:34;1.70;99.90
5118;DHT22;2578;51.622;7.046;2024-01-07T01:44:00;1.70;99.90
5118;DHT22;2578;51.622;7.046;2024-01-07T01:46:26;1.70;99.90
5118;DHT22;2578;51.622;7.046;2024-01-07T01:48:54;1.70;99.90
5118;DHT22;2578;51.622;7.046;2024-01-07T01:51:20;1.70;99.90
5118;DHT22;2578;51.622;7.046;2024-01-07T01:53:47;1.70;99.90
5118;DHT22;2578;51.622;7.046;2024-01-07T01:56:13;1.70;99.90
5118;DHT22;2578;51.622;7.046;2024-01-07T01:58:39;1.70;99.90
5118;DHT22;2578;51.622;7.046;2024-01-07T02:01:05;1.60;99.90
5118;DHT22;2578;51.622;7.046;2024-01-07T02:03:30;1.70;99.90
5118;DHT22;2578;51.622;7.046;2024-01-07T02:05:57;1.70;99.90
5118;DHT22;2578;51.622;7.046;2024-01-07T02:08:23;1.60;98.00
5118;DHT22;2578;51.622;7.046;2024-01-07T02:10:50;1.60;79.30
5118;DHT22;2578;51.622;7.046;2024-01-07T02:13:15;1.60;49.00
5118;DHT22;2578;51.622;7.046;2024-01-07T02:15:41;1.60;9.20
5118;DHT22;2578;51.622;7.046;2024-01-07T02:18:07;1.60;15.30
5118;DHT22;2578;51.622;7.046;2024-01-07T02:20:32;1.60;1.00
5118;DHT22;2578;51.622;7.046;2024-01-07T02:22:58;1.60;1.00
5118;DHT22;2578;51.622;7.046;2024-01-07T02:25:24;1.60;1.00
5118;DHT22;2578;51.622;7.046;2024-01-07T02:27:50;1.60;1.00
5118;DHT22;2578;51.622;7.046;2024-01-07T02:30:16;1.60;1.00
5118;DHT22;2578;51.622;7.046;2024-01-07T02:32:42;1.60;1.00
5118;DHT22;2578;51.622;7.046;2024-01-07T02:37:34;1.60;1.00
5118;DHT22;2578;51.622;7.046;2024-01-07T02:40:00;1.60;2.20
5118;DHT22;2578;51.622;7.046;2024-01-07T02:42:25;1.60;4.20
5118;DHT22;2578;51.622;7.046;2024-01-07T02:44:51;1.60;1.00
5118;DHT22;2578;51.622;7.046;2024-01-07T02:47:16;1.60;3.70
5118;DHT22;2578;51.622;7.046;2024-01-07T02:49:42;1.50;1.00
5118;DHT22;2578;51.622;7.046;2024-01-07T02:52:08;1.40;1.00
5118;DHT22;2578;51.622;7.046;2024-01-07T02:54:33;1.40;1.00
5118;DHT22;2578;51.622;7.046;2024-01-07T02:56:59;1.40;1.00
5118;DHT22;2578;51.622;7.046;2024-01-07T02:59:24;1.50;1.00
5118;DHT22;2578;51.622;7.046;2024-01-07T03:01:50;1.40;1.00
5118;DHT22;2578;51.622;7.046;2024-01-07T03:04:16;1.40;1.00
5118;DHT22;2578;51.622;7.046;2024-01-07T03:06:42;1.40;1.00
5118;DHT22;2578;51.622;7.046;2024-01-07T03:09:08;1.40;1.00
5118;DHT22;2578;51.622;7.046;2024-01-07T03:11:39;1.50;1.00
5118;DHT22;2578;51.622;7.046;2024-01-07T03:14:05;1.50;1.00
5118;DHT22;2578;51.622;7.046;2024-01-07T03:16:31;1.50;1.00
5118;DHT22;2578;51.622;7.046;2024-01-07T03:18:56;1.60;1.00
5118;DHT22;2578;51.622;7.046;2024-01-07T03:21:23;1.50;1.00
5118;DHT22;2578;51.622;7.046;2024-01-07T03:23:50;1.40;1.00
5118;DHT22;2578;51.622;7.046;2024-01-07T03:26:17;1.40;1.00
5118;DHT22;2578;51.622;7.046;2024-01-07T03:28:43;1.40;1.00
5118;DHT22;2578;51.622;7.046;2024-01-07T03:31:10;1.40;1.00
5118;DHT22;2578;51.622;7.046;2024-01-07T03:33:38;1.40;1.00
5118;DHT22;2578;51.622;7.046;2024-01-07T03:36:13;1.30;1.00
5118;DHT22;2578;51.622;7.046;2024-01-07T03:38:40;1.30;1.00
5118;DHT22;2578;51.622;7.046;2024-01-07T03:41:06;1.30;1.00
5118;DHT22;2578;51.622;7.046;2024-01-07T03:43:33;1.30;1.00
5118;DHT22;2578;51.622;7.046;2024-01-07T03:45:59;1.30;1.00
5118;DHT22;2578;51.622;7.046;2024-01-07T03:48:25;1.30;1.00
5118;DHT22;2578;51.622;7.046;2024-01-07T03:50:51;1.20;1.00
5118;DHT22;2578;51.622;7.046;2024-01-07T03:55:43;1.30;1.00
5118;DHT22;2578;51.622;7.046;2024-01-07T03:58:08;1.30;1.00
5118;DHT22;2578;51.622;7.046;2024-01-07T04:00:34;1.30;1.00
5118;DHT22;2578;51.622;7.046;2024-01-07T04:03:00;1.20;1.00
5118;DHT22;2578;51.622;7.046;2024-01-07T04:05:26;1.40;1.00
5118;DHT22;2578;51.622;7.046;2024-01-07T04:07:52;1.20;1.00
5118;DHT22;2578;51.622;7.046;2024-01-07T04:10:17;1.10;1.00
5118;DHT22;2578;51.622;7.046;2024-01-07T04:12:43;1.30;1.00
5118;DHT22;2578;51.622;7.046;2024-01-07T04:15:10;1.30;1.00
5118;DHT22;2578;51.622;7.046;2024-01-07T04:17:36;1.30;1.00
5118;DHT22;2578;51.622;7.046;2024-01-07T04:20:01;1.20;1.00
5118;DHT22;2578;51.622;7.046;2024-01-07T04:22:27;1.20;1.00
5118;DHT22;2578;51.622;7.046;2024-01-07T04:24:52;1.20;1.00
5118;DHT22;2578;51.622;7.046;2024-01-07T04:27:18;1.10;1.00
5118;DHT22;2578;51.622;7.046;2024-01-07T04:29:44;1.30;1.00
5118;DHT22;2578;51.622;7.046;2024-01-07T04:32:09;1.30;1.00
5118;DHT22;2578;51.622;7.046;2024-01-07T04:37:01;1.20;1.00
5118;DHT22;2578;51.622;7.046;2024-01-07T04:39:26;1.10;1.00
5118;DHT22;2578;51.622;7.046;2024-01-07T04:44:18;1.20;1.00
5118;DHT22;2578;51.622;7.046;2024-01-07T04:46:44;1.20;1.00
5118;DHT22;2578;51.622;7.046;2024-01-07T04:49:09;1.20;1.00
5118;DHT22;2578;51.622;7.046;2024-01-07T04:51:35;1.10;1.00
5118;DHT22;2578;51.622;7.046;2024-01-07T04:54:03;1.10;1.00
5118;DHT22;2578;51.622;7.046;2024-01-07T04:56:29;1.10;1.00
5118;DHT22;2578;51.622;7.046;2024-01-07T04:58:54;1.10;1.00
5118;DHT22;2578;51.622;7.046;2024-01-07T05:01:20;1.00;1.00
5118;DHT22;2578;51.622;7.046;2024-01-07T05:03:47;1.00;1.00
5118;DHT22;2578;51.622;7.046;2024-01-07T05:06:12;1.00;1.00
5118;DHT22;2578;51.622;7.046;2024-01-07T05:08:40;1.00;1.00
5118;DHT22;2578;51.622;7.046;2024-01-07T05:11:06;1.00;1.00
5118;DHT22;2578;51.622;7.046;2024-01-07T05:13:31;1.10;1.00
5118;DHT22;2578;51.622;7.046;2024-01-07T05:15:57;1.10;1.00
5118;DHT22;2578;51.622;7.046;2024-01-07T05:18:23;1.10;1.00
5118;DHT22;2578;51.622;7.046;2024-01-07T05:20:49;1.10;1.00
5118;DHT22;2578;51.622;7.046;2024-01-07T05:23:15;1.00;1.00
5118;DHT22;2578;51.622;7.046;2024-01-07T05:25:44;1.10;1.00
5118;DHT22;2578;51.622;7.046;2024-01-07T05:28:11;1.00;1.00
5118;DHT22;2578;51.622;7.046;2024-01-07T05:30:37;1.00;1.00
5118;DHT22;2578;51.622;7.046;2024-01-07T05:33:03;1.00;1.00
5118;DHT22;2578;51.622;7.046;2024-01-07T05:35:29;1.00;1.00
5118;DHT22;2578;51.622;7.046;2024-01-07T05:40:21;1.10;1.00
5118;DHT22;2578;51.622;7.046;2024-01-07T05:42:46;1.00;1.00
5118;DHT22;2578;51.622;7.046;2024-01-07T05:45:12;1.00;1.00
5118;DHT22;2578;51.622;7.046;2024-01-07T05:50:04;0.90;1.00
5118;DHT22;2578;51.622;7.046;2024-01-07T05:52:30;1.00;1.00
5118;DHT22;2578;51.622;7.046;2024-01-07T05:54:55;1.00;1.00
5118;DHT22;2578;51.622;7.046;2024-01-07T05:59:47;0.90;1.00
5118;DHT22;2578;51.622;7.046;2024-01-07T06:02:12;1.00;1.00
5118;DHT22;2578;51.622;7.046;2024-01-07T06:04:38;1.00;1.00
5118;DHT22;2578;51.622;7.046;2024-01-07T06:09:30;0.90;1.00
5118;DHT22;2578;51.622;7.046;2024-01-07T06:11:56;0.90;1.00
5118;DHT22;2578;51.622;7.046;2024-01-07T06:14:22;0.90;1.00
5118;DHT22;2578;51.622;7.046;2024-01-07T06:16:48;0.90;1.00
5118;DHT22;2578;51.622;7.046;2024-01-07T06:19:16;1.00;1.00
5118;DHT22;2578;51.622;7.046;2024-01-07T06:21:41;0.90;1.00
5118;DHT22;2578;51.622;7.046;2024-01-07T06:24:10;0.90;1.00
5118;DHT22;2578;51.622;7.046;2024-01-07T06:26:36;0.80;1.00
5118;DHT22;2578;51.622;7.046;2024-01-07T06:29:02;0.80;1.00
5118;DHT22;2578;51.622;7.046;2024-01-07T06:31:28;0.80;1.00
5118;DHT22;2578;51.622;7.046;2024-01-07T06:33:53;0.90;1.00
5118;DHT22;2578;51.622;7.046;2024-01-07T06:36:21;0.80;1.00
5118;DHT22;2578;51.622;7.046;2024-01-07T06:38:47;0.80;1.00
5118;DHT22;2578;51.622;7.046;2024-01-07T06:41:14;0.80;1.00
5118;DHT22;2578;51.622;7.046;2024-01-07T06:43:39;0.90;1.00
5118;DHT22;2578;51.622;7.046;2024-01-07T06:46:05;0.70;1.00
5118;DHT22;2578;51.622;7.046;2024-01-07T06:48:31;0.60;1.00
5118;DHT22;2578;51.622;7.046;2024-01-07T06:50:57;0.60;1.00
5118;DHT22;2578;51.622;7.046;2024-01-07T06:53:23;0.60;1.00
5118;DHT22;2578;51.622;7.046;2024-01-07T06:55:49;0.60;1.00
5118;DHT22;2578;51.622;7.046;2024-01-07T06:58:14;0.60;1.00
5118;DHT22;2578;51.622;7.046;2024-01-07T07:00:40;0.60;1.00
5118;DHT22;2578;51.622;7.046;2024-01-07T07:03:06;0.60;1.00
5118;DHT22;2578;51.622;7.046;2024-01-07T07:05:32;0.70;1.00
5118;DHT22;2578;51.622;7.046;2024-01-07T07:07:58;0.60;1.00
5118;DHT22;2578;51.622;7.046;2024-01-07T07:10:24;0.60;1.00
5118;DHT22;2578;51.622;7.046;2024-01-07T07:12:49;0.60;1.00
5118;DHT22;2578;51.622;7.046;2024-01-07T07:20:10;0.50;99.90
5118;DHT22;2578;51.622;7.046;2024-01-07T07:22:36;0.50;99.90
5118;DHT22;2578;51.622;7.046;2024-01-07T07:27:28;0.60;99.90
5118;DHT22;2578;51.622;7.046;2024-01-07T07:29:53;0.60;99.90
5118;DHT22;2578;51.622;7.046;2024-01-07T07:32:19;0.60;99.90
5118;DHT22;2578;51.622;7.046;2024-01-07T07:34:45;0.60;99.90
5118;DHT22;2578;51.622;7.046;2024-01-07T07:44:30;0.70;99.90
5118;DHT22;2578;51.622;7.046;2024-01-07T07:46:56;0.60;99.90
5118;DHT22;2578;51.622;7.046;2024-01-07T07:54:13;0.70;99.90
5118;DHT22;2578;51.622;7.046;2024-01-07T07:56:39;0.70;99.90
5118;DHT22;2578;51.622;7.046;2024-01-07T08:03:56;0.70;99.90
5118;DHT22;2578;51.622;7.046;2024-01-07T08:06:22;0.80;99.90
5118;DHT22;2578;51.622;7.046;2024-01-07T08:11:13;0.70;99.90
5118;DHT22;2578;51.622;7.046;2024-01-07T08:13:39;0.70;99.90
5118;DHT22;2578;51.622;7.046;2024-01-07T08:16:05;0.70;99.90
5118;DHT22;2578;51.622;7.046;2024-01-07T08:18:31;0.60;99.90
5118;DHT22;2578;51.622;7.046;2024-01-07T08:23:26;0.70;99.90
5118;DHT22;2578;51.622;7.046;2024-01-07T08:25:52;0.60;99.90
5118;DHT22;2578;51.622;7.046;2024-01-07T08:28:18;0.60;99.90
5118;DHT22;2578;51.622;7.046;2024-01-07T08:30:44;0.60;99.90
5118;DHT22;2578;51.622;7.046;2024-01-07T08:35:36;0.60;99.90
5118;DHT22;2578;51.622;7.046;2024-01-07T08:38:02;0.60;99.90
5118;DHT22;2578;51.622;7.046;2024-01-07T08:42:54;0.70;99.90
5118;DHT22;2578;51.622;7.046;2024-01-07T08:45:20;0.60;99.90
5118;DHT22;2578;51.622;7.046;2024-01-07T08:52:38;0.60;99.90
5118;DHT22;2578;51.622;7.046;2024-01-07T08:57:32;0.60;99.90
5118;DHT22;2578;51.622;7.046;2024-01-07T08:59:59;0.50;99.90
5118;DHT22;2578;51.622;7.046;2024-01-07T09:09:44;0.40;99.90
5118;DHT22;2578;51.622;7.046;2024-01-07T09:14:37;0.40;99.90
5118;DHT22;2578;51.622;7.046;2024-01-07T09:17:04;0.50;99.90
5118;DHT22;2578;51.622;7.046;2024-01-07T09:19:29;0.40;99.90
5118;DHT22;2578;51.622;7.046;2024-01-07T09:24:21;0.40;99.90
5118;DHT22;2578;51.622;7.046;2024-01-07T09:26:46;0.30;99.90
5118;DHT22;2578;51.622;7.046;2024-01-07T09:29:12;0.30;99.90
5118;DHT22;2578;51.622;7.046;2024-01-07T09:41:24;0.20;99.90
5118;DHT22;2578;51.622;7.046;2024-01-07T09:43:51;0.30;99.90
5118;DHT22;2578;51.622;7.046;2024-01-07T09:51:10;0.40;99.90
5118;DHT22;2578;51.622;7.046;2024-01-07T09:53:38;0.30;99.90
5118;DHT22;2578;51.622;7.046;2024-01-07T09:56:19;0.40;99.90
5118;DHT22;2578;51.622;7.046;2024-01-07T10:01:18;0.50;99.90
5118;DHT22;2578;51.622;7.046;2024-01-07T10:03:44;0.50;83.70
5118;DHT22;2578;51.622;7.046;2024-01-07T10:06:12;0.60;41.80
5118;DHT22;2578;51.622;7.046;2024-01-07T10:08:38;0.50;58.00
5118;DHT22;2578;51.622;7.046;2024-01-07T10:11:04;0.50;7.50
5118;DHT22;2578;51.622;7.046;2024-01-07T10:13:31;0.50;8.70
5118;DHT22;2578;51.622;7.046;2024-01-07T10:20:49;0.60;49.20
5118;DHT22;2578;51.622;7.046;2024-01-07T10:23:21;0.70;8.40
5118;DHT22;2578;51.622;7.046;2024-01-07T10:30:49;0.40;1.00
5118;DHT22;2578;51.622;7.046;2024-01-07T10:33:17;0.40;1.00
5118;DHT22;2578;51.622;7.046;2024-01-07T10:35:48;0.40;1.00
5118;DHT22;2578;51.622;7.046;2024-01-07T10:40:44;0.40;1.00
5118;DHT22;2578;51.622;7.046;2024-01-07T10:48:04;0.80;1.00
5118;DHT22;2578;51.622;7.046;2024-01-07T10:50:33;0.60;1.00
5118;DHT22;2578;51.622;7.046;2024-01-07T10:53:03;0.50;1.00
5118;DHT22;2578;51.622;7.046;2024-01-07T10:55:34;0.60;1.00
5118;DHT22;2578;51.622;7.046;2024-01-07T10:58:03;0.50;1.00
5118;DHT22;2578;51.622;7.046;2024-01-07T11:00:29;0.00;1.00
5118;DHT22;2578;51.622;7.046;2024-01-07T11:03:28;0.60;1.00
5118;DHT22;2578;51.622;7.046;2024-01-07T11:06:09;0.80;1.00
5118;DHT22;2578;51.622;7.046;2024-01-07T11:08:45;1.20;1.00
5118;DHT22;2578;51.622;7.046;2024-01-07T11:11:19;1.50;1.00
5118;DHT22;2578;51.622;7.046;2024-01-07T11:16:40;1.20;99.90
5118;DHT22;2578;51.622;7.046;2024-01-07T11:31:20;0.50;99.90
5118;DHT22;2578;51.622;7.046;2024-01-07T11:33:48;0.60;99.90
5118;DHT22;2578;51.622;7.046;2024-01-07T11:36:15;1.10;99.90
5118;DHT22;2578;51.622;7.046;2024-01-07T11:38:42;1.10;1.00
5118;DHT22;2578;51.622;7.046;2024-01-07T11:41:11;1.60;1.00
5118;DHT22;2578;51.622;7.046;2024-01-07T12:10:23;0.60;99.90
5118;DHT22;2578;51.622;7.046;2024-01-07T12:12:49;0.60;99.90
5118;DHT22;2578;51.622;7.046;2024-01-07T12:15:17;0.40;99.90
5118;DHT22;2578;51.622;7.046;2024-01-07T12:20:09;0.50;99.90
5118;DHT22;2578;51.622;7.046;2024-01-07T12:22:38;0.50;99.90
5118;DHT22;2578;51.622;7.046;2024-01-07T12:25:05;0.40;99.90
5118;DHT22;2578;51.622;7.046;2024-01-07T12:29:58;0.40;99.90
5118;DHT22;2578;51.622;7.046;2024-01-07T12:32:27;0.40;99.90
5118;DHT22;2578;51.622;7.046;2024-01-07T12:56:50;0.10;99.90
5118;DHT22;2578;51.622;7.046;2024-01-07T12:59:17;0.00;99.90
5118;DHT22;2578;51.622;7.046;2024-01-07T13:01:42;-0.10;99.90
5118;DHT22;2578;51.622;7.046;2024-01-07T13:06:35;-0.10;99.90
5118;DHT22;2578;51.622;7.046;2024-01-07T13:11:29;0.00;99.90
5118;DHT22;2578;51.622;7.046;2024-01-07T13:13:56;0.00;99.90
5118;DHT22;2578;51.622;7.046;2024-01-07T13:26:13;0.20;99.90
5118;DHT22;2578;51.622;7.046;2024-01-07T13:45:55;0.00;99.90
5118;DHT22;2578;51.622;7.046;2024-01-07T13:53:15;0.20;99.90
5118;DHT22;2578;51.622;7.046;2024-01-07T13:55:40;0.20;99.90
5118;DHT22;2578;51.622;7.046;2024-01-07T14:15:10;0.20;99.90
5118;DHT22;2578;51.622;7.046;2024-01-07T14:42:05;0.20;99.90
5118;DHT22;2578;51.622;7.046;2024-01-07T14:46:56;0.20;99.90
5118;DHT22;2578;51.622;7.046;2024-01-07T14:56:40;0.30;99.90
5118;DHT22;2578;51.622;7.046;2024-01-07T15:18:37;0.20;99.90
5118;DHT22;2578;51.622;7.046;2024-01-07T15:42:58;0.30;99.90
5118;DHT22;2578;51.622;7.046;2024-01-07T15:50:16;0.20;99.90
5118;DHT22;2578;51.622;7.046;2024-01-07T15:55:13;0.30;99.90
5118;DHT22;2578;51.622;7.046;2024-01-07T15:57:40;0.20;99.90
5118;DHT22;2578;51.622;7.046;2024-01-07T16:00:08;0.20;99.90
5118;DHT22;2578;51.622;7.046;2024-01-07T16:12:17;0.00;99.90
5118;DHT22;2578;51.622;7.046;2024-01-07T16:17:09;0.00;99.90
5118;DHT22;2578;51.622;7.046;2024-01-07T17:05:56;-0.80;99.90
5118;DHT22;2578;51.622;7.046;2024-01-07T17:08:22;-0.90;99.90
5118;DHT22;2578;51.622;7.046;2024-01-07T17:10:47;-0.90;99.90
5118;DHT22;2578;51.622;7.046;2024-01-07T17:15:39;-0.90;99.90
5118;DHT22;2578;51.622;7.046;2024-01-07T17:20:35;-1.00;99.90
5118;DHT22;2578;51.622;7.046;2024-01-07T17:23:03;-1.00;99.90
5118;DHT22;2578;51.622;7.046;2024-01-07T17:27:55;-1.10;99.90
5118;DHT22;2578;51.622;7.046;2024-01-07T17:40:10;-1.20;99.90
5118;DHT22;2578;51.622;7.046;2024-01-07T17:42:37;-1.20;99.90
5118;DHT22;2578;51.622;7.046;2024-01-07T17:45:03;-1.30;99.90
5118;DHT22;2578;51.622;7.046;2024-01-07T17:47:30;-1.30;99.90
5118;DHT22;2578;51.622;7.046;2024-01-07T17:52:22;-1.30;99.90
5118;DHT22;2578;51.622;7.046;2024-01-07T17:54:48;-1.30;99.90
5118;DHT22;2578;51.622;7.046;2024-01-07T18:21:36;-1.50;99.90
5118;DHT22;2578;51.622;7.046;2024-01-07T18:41:06;-1.70;99.90
5118;DHT22;2578;51.622;7.046;2024-01-07T18:43:31;-1.70;99.90
5118;DHT22;2578;51.622;7.046;2024-01-07T18:48:23;-1.70;99.90
5118;DHT22;2578;51.622;7.046;2024-01-07T18:58:12;-1.60;99.90
5118;DHT22;2578;51.622;7.046;2024-01-07T19:05:31;-1.50;99.90
5118;DHT22;2578;51.622;7.046;2024-01-07T19:07:56;-1.50;99.90
5118;DHT22;2578;51.622;7.046;2024-01-07T19:17:48;-1.50;99.90
5118;DHT22;2578;51.622;7.046;2024-01-07T19:22:41;-1.70;99.90
5118;DHT22;2578;51.622;7.046;2024-01-07T19:30:00;-1.60;99.90
5118;DHT22;2578;51.622;7.046;2024-01-07T19:32:26;-1.70;99.90
5118;DHT22;2578;51.622;7.046;2024-01-07T19:34:52;-1.70;99.90
5118;DHT22;2578;51.622;7.046;2024-01-07T19:44:40;-1.70;99.90
5118;DHT22;2578;51.622;7.046;2024-01-07T19:49:32;-1.50;99.90
5118;DHT22;2578;51.622;7.046;2024-01-07T20:01:47;-1.60;99.90
5118;DHT22;2578;51.622;7.046;2024-01-07T20:04:13;-1.50;99.90
5118;DHT22;2578;51.622;7.046;2024-01-07T20:21:27;-1.40;99.90
5118;DHT22;2578;51.622;7.046;2024-01-07T20:23:57;-1.40;99.90
5118;DHT22;2578;51.622;7.046;2024-01-07T20:28:51;-1.50;99.90
5118;DHT22;2578;51.622;7.046;2024-01-07T20:31:17;-1.40;99.90
5118;DHT22;2578;51.622;7.046;2024-01-07T20:33:43;-1.40;99.90
5118;DHT22;2578;51.622;7.046;2024-01-07T20:38:41;-1.40;99.90
5118;DHT22;2578;51.622;7.046;2024-01-07T20:41:09;-1.30;99.90
5118;DHT22;2578;51.622;7.046;2024-01-07T20:43:35;-1.30;99.90
5118;DHT22;2578;51.622;7.046;2024-01-07T20:46:01;-1.20;99.90
5118;DHT22;2578;51.622;7.046;2024-01-07T20:48:27;-1.10;99.90
5118;DHT22;2578;51.622;7.046;2024-01-07T20:50:53;-1.20;99.90
5118;DHT22;2578;51.622;7.046;2024-01-07T20:55:49;-1.00;99.90
5118;DHT22;2578;51.622;7.046;2024-01-07T21:03:16;-0.90;99.90
5118;DHT22;2578;51.622;7.046;2024-01-07T21:08:08;-1.00;99.90
5118;DHT22;2578;51.622;7.046;2024-01-07T21:10:34;-0.80;99.90
5118;DHT22;2578;51.622;7.046;2024-01-07T21:25:22;-0.90;99.90
5118;DHT22;2578;51.622;7.046;2024-01-07T21:27:51;-1.20;99.90
5118;DHT22;2578;51.622;7.046;2024-01-07T21:32:44;-1.00;99.90
5118;DHT22;2578;51.622;7.046;2024-01-07T21:40:05;-0.90;99.90
5118;DHT22;2578;51.622;7.046;2024-01-07T21:42:31;-1.00;99.90
5118;DHT22;2578;51.622;7.046;2024-01-07T21:54:52;-1.00;99.90
5118;DHT22;2578;51.622;7.046;2024-01-07T22:07:06;-1.50;99.90
5118;DHT22;2578;51.622;7.046;2024-01-07T22:41:10;-1.20;99.90
5118;DHT22;2578;51.622;7.046;2024-01-07T22:50:57;-1.30;99.90
5118;DHT22;2578;51.622;7.046;2024-01-07T22:58:16;-1.30;99.90
5118;DHT22;2578;51.622;7.046;2024-01-07T23:22:36;-1.60;99.90
5118;DHT22;2578;51.622;7.046;2024-01-07T23:25:02;-1.50;99.90
5118;DHT22;2578;51.622;7.046;2024-01-07T23:27:29;-1.50;99.90
5118;DHT22;2578;51.622;7.046;2024-01-07T23:29:55;-1.50;99.90
5118;DHT22;2578;51.622;7.046;2024-01-07T23:32:21;-1.40;99.90
